Time;durP1;ratioP1;P1;durP2;ratioP2;P2;SDS_P1;SDS_P2;PMS_P1;PMS_P2;Temp;Humidity;BMP_temperature;BMP_pressure;BME280_temperature;BME280_humidity;BME280_pressure;Samples;Min_cycle;Max_cycle;Signal;HPM_P1;HPM_P2
2023/02/18 00:02:40;;;;;;;0.00;0.00;;;;;;;10.49;98.77;101216.94;5931161;24;20171;-76
2023/02/18 00:05:23;;;;;;;;;;;;;;;;;;;;;
2023/02/18 00:07:58;;;;;;;0.00;0.00;;;;;;;10.31;98.07;101179.69;5932644;24;20475;-75
2023/02/18 00:10:36;;;;;;;0.00;0.00;;;;;;;10.46;98.17;101201.84;5907034;24;20019;-77
2023/02/18 00:13:01;;;;;;;0.00;0.00;;;;;;;10.21;97.69;101177.59;6015259;23;20010;-73
2023/02/18 00:15:37;;;;;;;0.00;0.00;;;;;;;10.50;98.13;101224.06;6125258;23;20013;-75
2023/02/18 00:18:06;;;;;;;0.00;0.00;;;;;;;10.13;97.12;101181.56;6219831;23;20004;-75
2023/02/18 00:20:41;;;;;;;0.00;0.00;;;;;;;10.09;96.37;101165.88;6216641;23;20039;-73
2023/02/18 00:23:09;;;;;;;0.00;0.00;;;;;;;10.31;94.33;101221.50;6222436;23;20007;-76
2023/02/18 00:25:35;;;;;;;0.00;0.00;;;;;;;10.29;93.85;101217.34;6169106;23;20060;-76
2023/02/18 00:28:02;;;;;;;0.00;0.00;;;;;;;10.23;92.47;101238.28;6169988;23;20009;-74
2023/02/18 00:30:28;;;;;;;0.00;0.00;;;;;;;10.25;91.57;101224.38;6219380;23;20020;-76
2023/02/18 00:32:53;;;;;;;0.00;0.00;;;;;;;10.25;91.55;101225.22;6190499;23;20012;-75
2023/02/18 00:35:19;;;;;;;0.00;0.00;;;;;;;10.08;91.49;101203.31;6194998;23;20000;-76
2023/02/18 00:37:44;;;;;;;0.00;0.00;;;;;;;10.20;91.32;101219.66;6166588;23;20015;-78
2023/02/18 00:40:10;;;;;;;0.00;0.00;;;;;;;10.18;89.58;101220.97;6146001;23;20305;-76
2023/02/18 00:42:35;;;;;;;0.00;0.00;;;;;;;10.10;89.14;101220.31;6169062;23;20091;-76
2023/02/18 00:45:01;;;;;;;0.00;0.00;;;;;;;10.11;90.01;101215.66;6167602;23;20028;-77
2023/02/18 00:47:26;;;;;;;0.00;0.00;;;;;;;10.05;88.10;101206.53;6196829;23;20001;-77
2023/02/18 00:49:52;;;;;;;0.00;0.00;;;;;;;9.97;88.21;101195.97;6147840;23;20012;-78
2023/02/18 00:52:17;;;;;;;0.00;0.00;;;;;;;10.05;87.77;101211.16;6182574;23;20013;-77
2023/02/18 00:54:43;;;;;;;0.00;0.00;;;;;;;9.96;86.53;101197.88;6156896;23;20011;-75
2023/02/18 00:57:11;;;;;;;0.00;0.00;;;;;;;9.95;85.46;101200.84;6146002;23;20011;-75
2023/02/18 00:59:36;;;;;;;0.00;0.00;;;;;;;9.93;85.44;101198.38;6222538;23;20008;-77
2023/02/18 01:02:02;;;;;;;0.00;0.00;;;;;;;9.84;85.16;101180.72;6178060;23;20046;-76
2023/02/18 01:04:27;;;;;;;0.00;0.00;;;;;;;9.91;84.76;101189.56;6203421;23;20209;-76
2023/02/18 01:06:53;;;;;;;0.00;0.00;;;;;;;9.99;83.63;101206.66;6200625;23;20580;-75
2023/02/18 01:09:18;;;;;;;0.00;0.00;;;;;;;10.00;84.26;101202.84;6223065;23;20023;-76
2023/02/18 01:11:44;;;;;;;0.00;0.00;;;;;;;9.93;84.33;101195.66;6170909;23;20009;-77
2023/02/18 01:14:09;;;;;;;0.00;0.00;;;;;;;9.98;84.03;101205.03;6192749;23;20015;-74
2023/02/18 01:16:35;;;;;;;0.00;0.00;;;;;;;10.01;83.23;101210.00;6217904;23;19997;-77
2023/02/18 01:19:00;;;;;;;0.00;0.00;;;;;;;10.02;83.13;101200.72;6166285;23;20008;-77
2023/02/18 01:21:26;;;;;;;0.00;0.00;;;;;;;10.03;82.54;101213.31;6215392;23;20005;-75
2023/02/18 01:23:53;;;;;;;0.00;0.00;;;;;;;10.00;82.02;101209.16;6217211;23;20012;-76
2023/02/18 01:26:19;;;;;;;0.00;0.00;;;;;;;9.94;81.79;101193.72;6219284;23;20008;-77
2023/02/18 01:28:44;;;;;;;0.00;0.00;;;;;;;10.00;82.26;101202.84;6167115;23;20083;-76
2023/02/18 01:31:12;;;;;;;0.00;0.00;;;;;;;9.99;81.87;101201.19;6215612;23;19989;-75
2023/02/18 01:33:42;;;;;;;0.00;0.00;;;;;;;9.98;81.42;101205.03;6216442;23;20486;-76
2023/02/18 01:36:09;;;;;;;0.00;0.00;;;;;;;9.96;81.33;101203.34;6219620;23;20016;-76
2023/02/18 01:38:35;;;;;;;0.00;0.00;;;;;;;9.99;81.57;101199.31;6193801;23;20009;-74
2023/02/18 01:41:00;;;;;;;0.00;0.00;;;;;;;9.96;81.14;101199.81;6191587;23;20019;-75
2023/02/18 01:43:26;;;;;;;0.00;0.00;;;;;;;9.95;80.91;101198.94;6144899;23;20482;-75
2023/02/18 01:45:56;;;;;;;0.00;0.00;;;;;;;9.99;81.11;101198.47;6168935;23;20020;-76
2023/02/18 01:48:33;;;;;;;0.00;0.00;;;;;;;9.95;80.80;101193.47;6217221;23;20001;-75
2023/02/18 01:51:12;;;;;;;0.00;0.00;;;;;;;9.92;80.66;101204.09;6196457;23;20072;-75
2023/02/18 01:53:56;;;;;;;0.00;0.00;;;;;;;9.96;80.99;101203.34;6191934;23;20083;-75
2023/02/18 01:56:36;;;;;;;0.00;0.00;;;;;;;9.95;80.52;101207.16;6198664;23;20027;-76
2023/02/18 01:59:07;;;;;;;0.00;0.00;;;;;;;9.96;80.80;101211.53;6194613;23;19995;-76
2023/02/18 02:01:34;;;;;;;0.00;0.00;;;;;;;9.93;80.50;101214.78;6221546;23;20035;-76
2023/02/18 02:03:59;;;;;;;0.00;0.00;;;;;;;9.89;81.16;101199.94;6218524;23;20076;-76
2023/02/18 02:06:25;;;;;;;0.00;0.00;;;;;;;9.95;80.63;101195.41;6208569;23;20063;-74
2023/02/18 02:08:54;;;;;;;0.00;0.00;;;;;;;9.93;81.31;101198.38;6189111;23;20020;-77
2023/02/18 02:11:51;;;;;;;0.00;0.00;;;;;;;9.94;80.11;101183.66;6193536;23;20075;-76
2023/02/18 02:14:53;;;;;;;0.00;0.00;;;;;;;9.91;80.40;101195.03;6218304;23;20424;-75
2023/02/18 02:17:56;;;;;;;0.00;0.00;;;;;;;9.87;81.03;101193.88;6192255;23;20015;-76
2023/02/18 02:20:27;;;;;;;0.05;0.05;;;;;;;9.86;80.89;101180.47;6191054;23;20011;-75
2023/02/18 02:23:09;;;;;;;0.00;0.00;;;;;;;9.86;81.13;101197.69;6191983;23;20447;-76
2023/02/18 02:26:12;;;;;;;0.00;0.00;;;;;;;9.81;80.98;101194.84;6216354;23;20005;-77
2023/02/18 02:28:57;;;;;;;0.00;0.00;;;;;;;9.77;81.56;101180.03;6194944;23;20009;-77
2023/02/18 02:31:37;;;;;;;0.00;0.00;;;;;;;9.75;81.48;101191.19;6194096;23;20005;-77
2023/02/18 02:34:28;;;;;;;0.00;0.00;;;;;;;9.73;81.79;101187.03;6218208;23;20004;-77
2023/02/18 02:37:05;;;;;;;0.00;0.00;;;;;;;9.70;81.83;101182.06;6195167;23;20012;-77
2023/02/18 02:39:41;;;;;;;0.00;0.00;;;;;;;9.66;82.70;101167.22;6191467;23;20015;-76
2023/02/18 02:42:34;;;;;;;0.00;0.00;;;;;;;9.61;82.76;101162.50;6193017;23;20452;-77
2023/02/18 02:45:05;;;;;;;0.00;0.00;;;;;;;9.66;82.96;101164.50;6214364;23;20048;-76
2023/02/18 02:47:40;;;;;;;0.00;0.00;;;;;;;9.61;82.98;101171.50;6193548;23;20047;-76
2023/02/18 02:50:09;;;;;;;;;;;;;;;9.60;83.39;101164.38;6214910;23;20012;-76
2023/02/18 02:52:43;;;;;;;0.00;0.00;;;;;;;9.55;83.69;101175.22;6220136;23;19899;-76
2023/02/18 02:55:10;;;;;;;0.00;0.00;;;;;;;9.61;83.62;101174.22;6188210;23;20099;-76
2023/02/18 02:57:40;;;;;;;0.00;0.00;;;;;;;9.60;83.56;101160.81;6191710;23;20335;-75
2023/02/18 03:00:11;;;;;;;0.00;0.00;;;;;;;9.57;83.80;101150.38;6212346;23;20000;-77
2023/02/18 03:02:57;;;;;;;0.00;0.00;;;;;;;9.60;83.76;101139.81;6194624;23;20004;-76
2023/02/18 03:05:28;;;;;;;0.00;0.00;;;;;;;9.61;84.00;101136.00;6218113;23;20052;-77
2023/02/18 03:08:12;;;;;;;0.00;0.00;;;;;;;9.61;84.01;101136.00;6194909;23;19993;-77
2023/02/18 03:11:04;;;;;;;0.00;0.00;;;;;;;9.63;84.08;101132.22;6193293;23;20040;-75
2023/02/18 03:14:00;;;;;;;0.00;0.00;;;;;;;9.61;83.62;101130.53;6221751;23;19984;-76
2023/02/18 03:16:46;;;;;;;0.00;0.00;;;;;;;9.58;83.97;101125.56;6193951;23;20327;-77
2023/02/18 03:19:28;;;;;;;0.00;0.00;;;;;;;9.58;84.39;101124.75;6191205;23;20026;-76
2023/02/18 03:22:02;;;;;;;0.00;0.00;;;;;;;9.57;84.27;101112.97;6193186;23;20337;-76
2023/02/18 03:24:33;;;;;;;0.00;0.00;;;;;;;9.53;84.88;101111.81;6195067;23;20005;-76
2023/02/18 03:27:05;;;;;;;0.00;0.00;;;;;;;9.54;84.52;101113.47;6174457;23;20091;-76
2023/02/18 03:29:32;;;;;;;0.00;0.00;;;;;;;9.54;84.54;101113.47;6202076;23;19996;-78
2023/02/18 03:32:04;;;;;;;0.00;0.00;;;;;;;9.55;85.05;101106.09;6197414;23;20000;-76
2023/02/18 03:34:37;;;;;;;0.00;0.00;;;;;;;9.58;84.87;101106.47;6196089;23;20015;-77
2023/02/18 03:37:03;;;;;;;0.00;0.00;;;;;;;9.57;84.46;101102.06;6195469;23;20001;-76
2023/02/18 03:39:31;;;;;;;0.00;0.00;;;;;;;9.50;85.14;101085.00;6166050;23;20012;-77
2023/02/18 03:41:57;;;;;;;0.00;0.00;;;;;;;9.57;85.27;101085.69;6194199;23;20328;-77
2023/02/18 03:44:25;;;;;;;0.00;0.00;;;;;;;9.58;85.24;101087.34;6219914;23;20025;-75
2023/02/18 03:46:51;;;;;;;0.00;0.00;;;;;;;9.61;85.14;101086.84;6219455;23;20004;-76
2023/02/18 03:49:20;;;;;;;0.00;0.00;;;;;;;9.51;85.74;101081.19;6192944;23;20009;-76
2023/02/18 03:51:46;;;;;;;0.00;0.00;;;;;;;9.53;85.93;101075.50;6190414;23;20008;-76
2023/02/18 03:54:13;;;;;;;0.00;0.00;;;;;;;9.55;85.90;101076.06;6169194;23;20008;-76
2023/02/18 03:56:41;;;;;;;0.00;0.00;;;;;;;9.58;86.06;101065.50;6140389;23;20044;-77
2023/02/18 03:59:07;;;;;;;0.00;0.00;;;;;;;9.51;85.98;101056.63;6193499;23;20012;-77
2023/02/18 04:01:32;;;;;;;0.00;0.00;;;;;;;9.53;86.27;101065.38;6196559;23;20000;-77
2023/02/18 04:03:58;;;;;;;0.00;0.00;;;;;;;9.48;86.56;101051.66;6215811;23;20043;-76
2023/02/18 04:06:24;;;;;;;0.00;0.00;;;;;;;9.49;86.68;101058.78;6169888;23;20102;-77
2023/02/18 04:08:49;;;;;;;0.00;0.00;;;;;;;9.52;86.60;101061.03;6142409;23;20447;-76
2023/02/18 04:11:16;;;;;;;0.00;0.00;;;;;;;9.46;87.13;101034.66;6216902;23;20004;-76
2023/02/18 04:13:43;;;;;;;0.00;0.00;;;;;;;9.40;86.58;101038.38;6194328;23;20050;-77
2023/02/18 04:16:09;;;;;;;0.00;0.00;;;;;;;9.37;87.00;101036.94;6191264;23;20005;-76
2023/02/18 04:18:34;;;;;;;0.00;0.00;;;;;;;9.31;87.50;101037.13;6192945;23;19995;-76
2023/02/18 04:21:03;;;;;;;0.00;0.00;;;;;;;9.28;87.27;101046.59;6164797;23;20089;-76
2023/02/18 04:23:28;;;;;;;0.00;0.00;;;;;;;9.26;87.68;101046.84;6166929;23;20024;-76
2023/02/18 04:25:55;;;;;;;0.00;0.00;;;;;;;9.25;88.03;101056.09;6163474;23;20012;-76
2023/02/18 04:28:22;;;;;;;0.03;0.03;;;;;;;9.16;88.27;101049.38;6167511;23;20005;-77
2023/02/18 04:30:47;;;;;;;0.00;0.00;;;;;;;9.06;88.66;101049.16;6193639;23;20009;-76
2023/02/18 04:33:14;;;;;;;0.00;0.00;;;;;;;9.02;89.31;101050.72;6188093;23;20011;-76
2023/02/18 04:35:40;;;;;;;0.00;0.00;;;;;;;8.97;89.36;101053.34;6189126;23;20832;-76
2023/02/18 04:38:07;;;;;;;0.00;0.00;;;;;;;8.96;89.56;101044.31;6192246;23;20092;-76
2023/02/18 04:40:33;;;;;;;0.00;0.00;;;;;;;9.04;89.37;101048.59;6192511;23;20011;-75
2023/02/18 04:42:59;;;;;;;0.00;0.00;;;;;;;9.16;89.18;101046.66;6219086;23;20004;-76
2023/02/18 04:45:26;;;;;;;0.00;0.00;;;;;;;9.23;88.67;101060.16;6189559;23;20009;-75
2023/02/18 04:47:52;;;;;;;0.05;0.05;;;;;;;9.22;88.28;101048.41;6217432;23;20043;-75
2023/02/18 04:50:20;;;;;;;0.00;0.00;;;;;;;9.20;88.66;101050.56;6140234;23;20008;-75
2023/02/18 04:52:46;;;;;;;0.00;0.00;;;;;;;9.15;88.80;101055.91;6219789;23;20053;-76
2023/02/18 04:55:12;;;;;;;0.00;0.00;;;;;;;9.16;88.95;101054.84;6191532;23;20008;-76
2023/02/18 04:57:37;;;;;;;0.00;0.00;;;;;;;9.20;88.37;101071.53;6219301;23;20004;-77
2023/02/18 05:00:10;;;;;;;0.00;0.00;;;;;;;9.27;88.10;101061.31;6168562;23;20009;-77
2023/02/18 05:02:35;;;;;;;0.00;0.00;;;;;;;9.32;88.25;101057.88;6190130;23;19984;-75
2023/02/18 05:05:01;;;;;;;0.00;0.00;;;;;;;9.37;88.21;101061.53;6167712;23;20012;-77
2023/02/18 05:07:26;;;;;;;0.00;0.00;;;;;;;9.35;87.95;101050.03;6192524;23;20019;-77
2023/02/18 05:09:52;;;;;;;0.00;0.00;;;;;;;9.43;87.64;101067.91;6194595;23;20395;-77
2023/02/18 05:12:18;;;;;;;0.00;0.00;;;;;;;9.38;87.41;101055.00;6190929;23;20061;-76
2023/02/18 05:14:43;;;;;;;0.00;0.00;;;;;;;9.40;88.21;101054.75;6168793;23;20012;-76
2023/02/18 05:17:09;;;;;;;0.00;0.00;;;;;;;9.40;87.88;101063.78;6221437;23;20001;-77
2023/02/18 05:19:34;;;;;;;0.00;0.00;;;;;;;9.42;87.80;101066.28;6191830;23;20008;-76
2023/02/18 05:22:01;;;;;;;0.00;0.00;;;;;;;9.46;87.85;101061.97;6170067;23;20066;-77
2023/02/18 05:24:29;;;;;;;0.00;0.00;;;;;;;9.50;87.62;101074.06;6142214;23;20008;-76
2023/02/18 05:26:54;;;;;;;0.00;0.00;;;;;;;9.50;87.93;101068.59;6193902;23;20004;-76
2023/02/18 05:29:20;;;;;;;0.00;0.00;;;;;;;9.47;87.97;101063.63;6165276;23;20016;-76
2023/02/18 05:31:45;;;;;;;0.00;0.00;;;;;;;9.57;87.96;101066.56;6194038;23;20004;-75
2023/02/18 05:34:11;;;;;;;0.00;0.00;;;;;;;9.54;87.91;101069.78;6169021;23;20047;-78
2023/02/18 05:36:36;;;;;;;0.00;0.00;;;;;;;9.54;88.44;101075.25;6190266;23;19989;-77
2023/02/18 05:39:03;;;;;;;0.00;0.00;;;;;;;9.49;88.25;101061.50;6193725;23;20488;-77
2023/02/18 05:41:28;;;;;;;0.00;0.00;;;;;;;9.52;89.15;101066.47;6166284;23;20024;-77
2023/02/18 05:46:39;;;;;;;0.00;0.00;;;;;;;9.57;88.46;101076.66;6178464;23;20038;-74
2023/02/18 05:49:05;;;;;;;0.00;0.00;;;;;;;9.60;89.41;101074.25;6223975;23;20031;-77
2023/02/18 05:51:33;;;;;;;0.00;0.00;;;;;;;9.64;88.77;101073.78;6199874;23;20063;-78
2023/02/18 05:54:05;;;;;;;0.10;0.10;;;;;;;9.59;88.82;101067.16;6222761;23;20019;-77
2023/02/18 05:56:31;;;;;;;0.00;0.00;;;;;;;9.63;88.66;101070.22;6195736;23;20001;-75
2023/02/18 05:59:04;;;;;;;0.00;0.00;;;;;;;9.49;88.06;101038.81;6220930;23;20067;-75
2023/02/18 06:01:32;;;;;;;0.00;0.00;;;;;;;9.38;88.20;101026.88;6175848;23;20419;-75
2023/02/18 06:03:57;;;;;;;0.00;0.00;;;;;;;9.58;88.73;101059.22;6201436;23;19997;-76
2023/02/18 06:06:34;;;;;;;0.00;0.00;;;;;;;9.52;88.62;101061.03;6208985;23;20005;-75
2023/02/18 06:09:10;;;;;;;0.00;0.00;;;;;;;9.53;88.88;101053.66;6170384;23;20004;-76
2023/02/18 06:11:36;;;;;;;0.00;0.00;;;;;;;9.50;89.48;101054.97;6222318;23;20023;-76
2023/02/18 06:14:04;;;;;;;0.00;0.00;;;;;;;9.39;89.75;101044.94;6191877;23;20005;-75
2023/02/18 06:16:40;;;;;;;;;;;;;;;;;;;;;
2023/02/18 06:19:16;;;;;;;;;;;;;;;;;;;;;
2023/02/18 06:21:44;;;;;;;0.00;0.00;;;;;;;9.21;90.58;101022.22;6198770;23;20036;-76
2023/02/18 06:24:10;;;;;;;0.00;0.00;;;;;;;9.35;90.77;101055.50;6195592;23;20027;-76
2023/02/18 06:27:09;;;;;;;;;;;;;;;;;;;;;
2023/02/18 06:30:21;;;;;;;0.00;0.00;;;;;;;9.49;91.17;101055.19;6223874;23;20024;-75
2023/02/18 06:39:30;;;;;;;;;;;;;;;;;;;;;
2023/02/18 06:42:23;;;;;;;0.00;0.00;;;;;;;9.51;91.23;101036.69;6220422;23;20028;-75
2023/02/18 06:44:58;;;;;;;0.00;0.00;;;;;;;9.31;91.34;101027.00;6176103;23;20017;-75
2023/02/18 06:47:26;;;;;;;;;;;;;;;9.48;91.49;101051.66;6196594;23;19996;-75
2023/02/18 06:50:00;;;;;;;0.00;0.00;;;;;;;9.47;91.94;101035.50;6219669;23;20323;-76
2023/02/18 06:52:32;;;;;;;0.00;0.00;;;;;;;9.48;91.81;101037.19;6220131;23;20039;-75
2023/02/18 06:54:57;;;;;;;0.00;0.00;;;;;;;9.48;92.29;101032.53;6194379;23;20345;-76
2023/02/18 06:57:26;;;;;;;0.00;0.00;;;;;;;9.48;92.27;101032.53;6219872;23;20004;-75
2023/02/18 06:59:52;;;;;;;0.00;0.00;;;;;;;9.25;91.79;100998.78;6145839;23;20006;-75
2023/02/18 07:02:17;;;;;;;0.00;0.00;;;;;;;9.51;92.33;101042.97;6216264;23;20390;-76
2023/02/18 07:04:45;;;;;;;0.00;0.00;;;;;;;9.49;92.25;101023.28;6222796;23;20047;-75
2023/02/18 07:07:20;;;;;;;0.00;0.00;;;;;;;9.51;91.51;101032.03;6219532;23;20011;-75
2023/02/18 07:09:53;;;;;;;0.00;0.00;;;;;;;9.49;91.43;101039.66;6196713;23;20070;-76
2023/02/18 07:12:24;;;;;;;0.00;0.00;;;;;;;9.50;91.89;101024.09;6193311;23;20005;-75
2023/02/18 07:14:57;;;;;;;0.00;0.00;;;;;;;9.52;91.64;101032.88;6171053;23;20039;-75
2023/02/18 07:17:28;;;;;;;0.00;0.00;;;;;;;9.61;91.61;101043.16;6191725;23;20036;-75
2023/02/18 07:19:55;;;;;;;0.00;0.00;;;;;;;9.66;91.84;101038.88;6194966;23;20073;-75
2023/02/18 07:22:21;;;;;;;0.00;0.00;;;;;;;9.63;91.24;101028.44;6167667;23;20714;-76
2023/02/18 07:25:30;;;;;;;0.00;0.00;;;;;;;9.72;90.56;101046.06;6221443;23;20035;-73
2023/02/18 07:28:08;;;;;;;0.00;0.00;;;;;;;9.63;90.59;101028.44;6192518;23;20028;-75
2023/02/18 07:30:34;;;;;;;0.00;0.00;;;;;;;9.66;90.42;101026.03;6170814;23;20074;-76
2023/02/18 07:32:59;;;;;;;0.00;0.00;;;;;;;9.72;90.26;101021.50;6193952;23;20016;-76
2023/02/18 07:35:25;;;;;;;0.00;0.00;;;;;;;9.79;90.12;101033.09;6222081;23;19981;-75
2023/02/18 07:37:50;;;;;;;0.00;0.00;;;;;;;9.83;90.78;101045.19;6191353;23;20009;-76
2023/02/18 07:40:19;;;;;;;0.00;0.00;;;;;;;9.86;90.04;101039.25;6216019;23;20450;-75
2023/02/18 07:42:44;;;;;;;0.00;0.00;;;;;;;9.90;90.17;101037.69;6215417;23;20079;-76
2023/02/18 07:45:10;;;;;;;0.00;0.00;;;;;;;9.90;90.49;101040.41;6187452;23;20036;-77
2023/02/18 07:47:36;;;;;;;0.00;0.00;;;;;;;9.88;90.31;101048.00;6220217;23;20097;-75
2023/02/18 07:50:02;;;;;;;0.00;0.00;;;;;;;9.86;90.54;101044.69;6217158;23;20024;-76
2023/02/18 07:52:27;;;;;;;0.00;0.00;;;;;;;9.88;90.69;101037.06;6191369;23;20005;-76
2023/02/18 07:54:53;;;;;;;0.00;0.00;;;;;;;9.94;90.68;101044.31;6168358;23;20013;-75
2023/02/18 07:57:19;;;;;;;0.00;0.00;;;;;;;9.98;90.20;101052.00;6168128;23;20455;-76
2023/02/18 07:59:44;;;;;;;0.00;0.00;;;;;;;10.05;90.33;101052.69;6165023;23;20020;-75
2023/02/18 08:02:18;;;;;;;0.00;0.00;;;;;;;10.11;90.46;101059.88;6168829;23;20087;-75
2023/02/18 08:04:46;;;;;;;0.00;0.00;;;;;;;10.14;90.46;101070.31;6216672;23;20001;-76
2023/02/18 08:07:13;;;;;;;0.00;0.00;;;;;;;10.17;89.71;101066.28;6191999;23;20024;-76
2023/02/18 08:09:42;;;;;;;0.00;0.00;;;;;;;10.13;90.41;101072.22;6193425;23;20016;-74
2023/02/18 08:12:13;;;;;;;0.00;0.00;;;;;;;10.16;91.26;101065.41;6189550;23;20008;-74
2023/02/18 08:14:48;;;;;;;0.00;0.00;;;;;;;10.05;91.38;101047.22;6219720;23;20031;-75
2023/02/18 08:17:13;;;;;;;0.00;0.00;;;;;;;10.05;92.05;101055.41;6170181;23;20317;-77
2023/02/18 08:19:39;;;;;;;0.00;0.00;;;;;;;10.18;91.74;101068.75;6204534;23;20019;-76
2023/02/18 08:22:13;;;;;;;0.00;0.00;;;;;;;10.13;91.89;101044.06;6193233;23;20009;-74
2023/02/18 08:24:38;;;;;;;;;;;;;;;10.24;92.42;101067.75;6196312;23;20080;-75
2023/02/18 08:27:59;;;;;;;0.00;0.00;;;;;;;10.07;92.90;101050.50;6221059;23;19895;-80
2023/02/18 08:34:23;;;;;;;;;;;;;;;;;;;;;
2023/02/18 08:36:57;;;;;;;0.00;0.00;;;;;;;10.09;94.95;101037.41;6026048;23;20027;-81
2023/02/18 08:39:25;;;;;;;0.00;0.00;;;;;;;10.40;94.90;101077.06;6100478;23;20016;-78
2023/02/18 08:41:50;;;;;;;0.00;0.00;;;;;;;10.52;94.28;101078.91;6222673;23;19984;-79
2023/02/18 08:44:15;;;;;;;0.00;0.00;;;;;;;10.48;94.60;101082.13;6223800;22;20015;-81
2023/02/18 08:46:51;;;;;;;0.00;0.00;;;;;;;10.39;95.38;101077.31;6169450;23;20040;-79
2023/02/18 08:49:19;;;;;;;0.00;0.00;;;;;;;10.53;95.18;101078.63;6150901;23;20004;-79
2023/02/18 08:51:47;;;;;;;0.00;0.00;;;;;;;10.57;95.73;101082.53;6218261;23;20004;-78
2023/02/18 08:54:15;;;;;;;0.00;0.00;;;;;;;10.63;95.54;101065.13;6169769;23;20031;-78
2023/02/18 08:56:41;;;;;;;0.00;0.00;;;;;;;10.74;94.56;101071.56;6190334;23;20055;-78
2023/02/18 08:59:24;;;;;;;0.00;0.00;;;;;;;10.83;93.92;101069.22;6193758;23;20012;-78
2023/02/18 09:01:52;;;;;;;0.00;0.00;;;;;;;10.78;93.97;101072.72;6192238;23;20530;-78
2023/02/18 09:04:21;;;;;;;0.00;0.00;;;;;;;10.78;94.62;101072.72;6194548;23;20005;-79
2023/02/18 09:06:48;;;;;;;0.00;0.00;;;;;;;10.95;94.53;101091.00;6219740;23;20577;-79
2023/02/18 09:09:17;;;;;;;0.00;0.00;;;;;;;11.02;94.86;101088.91;6168302;23;20039;-79
2023/02/18 09:11:45;;;;;;;0.00;0.00;;;;;;;11.02;94.49;101074.41;6193086;23;20004;-78
2023/02/18 09:14:25;;;;;;;0.00;0.00;;;;;;;11.11;94.62;101083.81;6193075;23;20011;-78
2023/02/18 09:16:54;;;;;;;0.00;0.00;;;;;;;11.21;93.80;101073.00;6194888;23;20032;-79
2023/02/18 09:19:22;;;;;;;0.00;0.00;;;;;;;11.20;93.41;101074.13;6193975;23;19996;-79
2023/02/18 09:21:56;;;;;;;0.00;0.00;;;;;;;11.21;93.71;101063.97;6197231;23;20012;-78
2023/02/18 09:24:39;;;;;;;0.00;0.00;;;;;;;11.38;92.93;101083.09;6194178;23;20008;-79
2023/02/18 09:27:05;;;;;;;0.00;0.00;;;;;;;11.50;93.16;101067.34;6195597;23;20012;-78
2023/02/18 09:29:34;;;;;;;0.00;0.00;;;;;;;11.37;92.87;101048.56;6169541;23;20427;-79
2023/02/18 09:32:04;;;;;;;0.00;0.00;;;;;;;11.58;91.79;101069.63;6196826;23;20381;-78
2023/02/18 09:34:30;;;;;;;0.00;0.00;;;;;;;11.43;92.26;101072.19;6219743;23;20005;-78
2023/02/18 09:37:26;;;;;;;;;;;;;;;;;;;;;
2023/02/18 09:39:54;;;;;;;0.00;0.00;;;;;;;11.50;92.57;101068.16;6176060;22;20012;-79
2023/02/18 09:42:53;;;;;;;0.00;0.00;;;;;;;11.72;91.27;101053.59;6174293;23;20019;-77
2023/02/18 09:45:17;;;;;;;0.00;0.00;;;;;;;11.76;90.85;101052.00;6219045;23;20070;-78
2023/02/18 09:47:44;;;;;;;0.00;0.00;;;;;;;12.03;89.97;101065.72;6171779;23;20047;-79
2023/02/18 09:50:42;;;;;;;0.00;0.00;;;;;;;12.24;89.35;101087.84;6175126;23;20001;-78
2023/02/18 09:53:18;;;;;;;0.00;0.00;;;;;;;12.23;88.68;101058.75;6204946;23;20005;-78
2023/02/18 09:55:48;;;;;;;0.00;0.00;;;;;;;12.35;89.02;101066.81;6207486;23;20009;-76
2023/02/18 09:58:36;;;;;;;0.00;0.00;;;;;;;12.60;88.25;101059.84;6206355;23;20001;-79
2023/02/18 10:01:29;;;;;;;0.00;0.00;;;;;;;12.68;87.25;101070.34;6200952;23;19996;-78
2023/02/18 10:04:05;;;;;;;0.00;0.00;;;;;;;12.50;87.24;101046.88;6193655;23;20031;-79
2023/02/18 10:06:34;;;;;;;0.00;0.00;;;;;;;12.51;87.57;101054.88;6198652;23;20372;-78
2023/02/18 10:09:25;;;;;;;;;;;;;;;;;;;;;
2023/02/18 10:12:04;;;;;;;0.00;0.00;;;;;;;12.42;87.88;101072.06;6222420;23;20059;-81
2023/02/18 10:14:35;;;;;;;0.00;0.00;;;;;;;12.37;87.86;101079.16;6199100;23;20031;-80
2023/02/18 10:17:02;;;;;;;0.00;0.00;;;;;;;12.30;88.34;101086.78;6171845;23;20046;-79
2023/02/18 10:19:37;;;;;;;0.00;0.00;;;;;;;12.27;89.38;101076.34;6196109;23;20008;-78
2023/02/18 10:22:05;;;;;;;0.00;0.00;;;;;;;12.37;89.25;101090.16;6193689;23;20009;-79
2023/02/18 10:25:17;;;;;;;;;;;;;;;;;;;;;
2023/02/18 10:27:47;;;;;;;0.00;0.00;;;;;;;12.25;89.94;101105.97;6220849;23;20024;-79
2023/02/18 10:30:25;;;;;;;0.00;0.00;;;;;;;12.21;90.34;101100.16;6170658;23;20004;-78
2023/02/18 10:33:01;;;;;;;0.00;0.00;;;;;;;12.25;89.68;101092.25;6220778;23;20032;-79
2023/02/18 10:35:51;;;;;;;0.00;0.00;;;;;;;12.10;90.58;101081.94;6196395;23;19999;-78
2023/02/18 10:39:09;;;;;;;0.00;0.00;;;;;;;12.30;90.33;101096.94;6220876;23;20001;-79
2023/02/18 10:42:04;;;;;;;0.05;0.05;;;;;;;12.44;89.31;101097.31;6192398;23;20158;-78
2023/02/18 10:44:44;;;;;;;0.00;0.00;;;;;;;12.23;89.60;101086.19;6219266;22;20074;-80
2023/02/18 10:47:30;;;;;;;0.00;0.00;;;;;;;12.13;89.75;101102.53;6193581;23;20075;-78
2023/02/18 10:50:28;;;;;;;0.00;0.00;;;;;;;11.97;91.25;101096.94;6193080;23;19999;-78
2023/02/18 10:53:00;;;;;;;0.00;0.00;;;;;;;12.11;91.18;101082.78;6147952;23;20008;-78
2023/02/18 10:55:39;;;;;;;0.00;0.00;;;;;;;12.28;90.37;101083.50;6219217;23;20008;-78
2023/02/18 10:58:25;;;;;;;0.00;0.00;;;;;;;12.52;89.13;101096.84;6222300;23;19996;-77
2023/02/18 11:00:51;;;;;;;0.00;0.00;;;;;;;12.53;88.33;101082.88;6220465;23;20000;-76
2023/02/18 11:03:44;;;;;;;0.05;0.05;;;;;;;12.53;88.15;101082.03;6195354;23;20061;-80
2023/02/18 11:06:45;;;;;;;0.00;0.00;;;;;;;12.49;88.22;101080.91;6218937;23;20462;-78
2023/02/18 11:09:29;;;;;;;0.00;0.00;;;;;;;12.49;87.96;101080.91;6173489;23;20044;-78
2023/02/18 11:12:12;;;;;;;0.00;0.00;;;;;;;12.53;87.87;101095.75;6229775;23;20031;-78
2023/02/18 11:14:49;;;;;;;0.00;0.00;;;;;;;12.61;87.41;101072.50;6202193;23;20398;-77
2023/02/18 11:17:37;;;;;;;0.00;0.00;;;;;;;12.67;86.52;101080.47;6219918;23;20023;-77
2023/02/18 11:20:27;;;;;;;0.00;0.00;;;;;;;12.75;86.77;101077.25;6193447;23;20012;-79
2023/02/18 11:23:05;;;;;;;0.00;0.00;;;;;;;12.86;86.19;101074.56;6194104;23;20007;-78
2023/02/18 11:25:34;;;;;;;0.00;0.00;;;;;;;12.94;85.89;101087.78;6220677;23;20005;-79
2023/02/18 11:28:03;;;;;;;0.00;0.00;;;;;;;12.81;85.69;101091.00;6222744;23;20001;-77
2023/02/18 11:30:46;;;;;;;0.00;0.00;;;;;;;12.80;86.13;101086.59;6197285;23;20343;-78
2023/02/18 11:33:23;;;;;;;0.00;0.00;;;;;;;12.66;87.08;101076.09;6195953;23;20000;-79
2023/02/18 11:35:57;;;;;;;0.00;0.00;;;;;;;12.53;87.52;101079.31;6194033;23;20004;-78
2023/02/18 11:38:28;;;;;;;0.00;0.00;;;;;;;12.54;88.19;101098.25;6222531;23;20008;-78
2023/02/18 11:40:58;;;;;;;0.00;0.00;;;;;;;12.44;88.81;101095.41;6194587;23;20000;-79
2023/02/18 11:43:32;;;;;;;0.00;0.00;;;;;;;12.46;89.32;101084.19;6218769;23;20003;-79
2023/02/18 11:46:17;;;;;;;0.00;0.00;;;;;;;12.26;90.12;101082.91;6221355;22;20005;-80
2023/02/18 11:48:52;;;;;;;0.00;0.00;;;;;;;12.12;90.59;101074.31;6220570;23;20012;-78
2023/02/18 11:51:23;;;;;;;0.00;0.00;;;;;;;12.12;91.39;101073.47;6193597;23;20331;-79
2023/02/18 11:54:29;;;;;;;0.00;0.00;;;;;;;12.15;92.78;101095.72;6193187;23;20009;-78
2023/02/18 11:57:04;;;;;;;0.00;0.00;;;;;;;12.00;93.27;101093.66;6188180;23;20083;-78
2023/02/18 11:59:34;;;;;;;0.00;0.00;;;;;;;11.86;94.88;101085.00;6195558;23;20008;-79
2023/02/18 12:02:09;;;;;;;0.00;0.00;;;;;;;11.82;96.11;101092.06;6191653;23;20439;-79
2023/02/18 12:04:52;;;;;;;0.00;0.00;;;;;;;11.88;97.58;101095.69;6195814;23;20004;-78
2023/02/18 12:07:49;;;;;;;0.00;0.00;;;;;;;11.85;97.84;101090.72;6192494;23;20072;-81
2023/02/18 12:11:13;;;;;;;0.00;0.00;;;;;;;11.73;99.36;101101.03;6193589;23;20016;-81
2023/02/18 12:13:54;;;;;;;;;;;;;;;;;;;;;
2023/02/18 12:17:01;;;;;;;0.00;0.00;;;;;;;11.54;100.00;101073.97;6222487;23;20031;-79
2023/02/18 12:20:01;;;;;;;0.00;0.00;;;;;;;11.65;100.00;101086.69;6192938;23;20027;-79
2023/02/18 12:22:48;;;;;;;0.00;0.00;;;;;;;11.70;100.00;101070.28;6193301;23;20585;-79
2023/02/18 12:25:39;;;;;;;0.00;0.00;;;;;;;11.80;100.00;101066.03;6196261;23;20095;-79
2023/02/18 12:28:17;;;;;;;;;;;;;;;;;;;;;